createdAt,value
2023-05-13T09:05:29.099Z,6.40
2023-05-13T09:08:34.510Z,8.78
2023-05-13T09:11:43.236Z,1.95
2023-05-13T09:14:48.178Z,6.12
2023-05-13T09:17:55.663Z,5.20
2023-05-13T09:21:03.038Z,4.28
2023-05-13T09:24:31.382Z,4.53
2023-05-13T09:27:44.847Z,3.58
2023-05-13T09:30:53.198Z,4.40
2023-05-13T09:34:08.299Z,3.52
2023-05-13T09:37:21.737Z,4.67
2023-05-13T09:40:28.833Z,2.75
2023-05-13T09:43:37.816Z,2.80
2023-05-13T09:46:42.886Z,1.57
2023-05-13T09:49:50.032Z,5.97
2023-05-13T09:52:58.111Z,9.58
2023-05-13T09:56:06.878Z,3.15
2023-05-13T09:59:12.332Z,2.65
2023-05-13T10:02:22.924Z,2.92
2023-05-13T10:05:28.498Z,1.30
2023-05-13T10:08:35.210Z,2.25
2023-05-13T10:11:40.624Z,5.65
2023-05-13T10:14:46.288Z,4.00
2023-05-13T10:17:51.910Z,2.62
2023-05-13T10:21:01.037Z,2.17
2023-05-13T10:24:05.953Z,4.78
2023-05-13T10:27:12.253Z,2.70
2023-05-13T10:30:18.046Z,6.72
2023-05-13T10:33:23.826Z,8.88
2023-05-13T10:37:02.112Z,4.15
2023-05-13T10:40:50.517Z,2.25
2023-05-13T10:43:49.644Z,4.58
2023-05-13T10:46:58.467Z,5.03
2023-05-13T10:50:11.984Z,4.35
2023-05-13T10:53:19.492Z,4.42
2023-05-13T10:56:25.477Z,2.85
2023-05-13T10:59:31.055Z,1.42
2023-05-13T11:02:40.657Z,2.37
2023-05-13T11:05:47.144Z,1.50
2023-05-13T11:08:58.361Z,4.75
2023-05-13T11:12:02.802Z,3.95
2023-05-13T11:15:13.290Z,4.33
2023-05-13T11:18:21.472Z,4.35
2023-05-13T11:21:27.785Z,4.15
2023-05-13T11:24:33.920Z,1.42
2023-05-13T11:27:41.652Z,6.15
2023-05-13T11:30:47.669Z,4.22
2023-05-13T11:34:32.097Z,2.92
2023-05-13T11:37:38.465Z,2.40
2023-05-13T11:40:48.109Z,4.80
2023-05-13T11:43:52.961Z,1.70
2023-05-13T11:47:13.139Z,3.22
2023-05-13T11:50:33.958Z,3.62
2023-05-13T11:53:39.576Z,2.67
2023-05-13T11:56:45.169Z,2.10
2023-05-13T11:59:51.510Z,3.27
2023-05-13T12:02:57.260Z,1.82
2023-05-13T12:06:02.590Z,3.90
2023-05-13T12:09:09.688Z,2.45
2023-05-13T12:12:16.894Z,3.08
2023-05-13T12:15:32.839Z,6.45
2023-05-13T12:18:40.358Z,5.75
2023-05-13T12:21:50.699Z,5.25
2023-05-13T12:24:58.514Z,3.30
2023-05-13T12:28:08.115Z,6.85
2023-05-13T12:31:16.857Z,4.22
2023-05-13T12:34:24.382Z,2.77
2023-05-13T12:37:30.512Z,1.42
2023-05-13T12:40:36.146Z,3.85
2023-05-13T12:43:41.156Z,1.57
2023-05-13T12:46:47.782Z,5.08
2023-05-13T12:50:13.462Z,1.47
2023-05-13T12:53:19.809Z,2.22
2023-05-13T12:56:24.561Z,6.00
2023-05-13T12:59:30.746Z,2.72
2023-05-13T13:02:36.213Z,8.30
2023-05-13T13:05:41.798Z,2.47
2023-05-13T13:08:47.691Z,3.05
2023-05-13T13:11:54.764Z,5.65
2023-05-13T13:15:00.796Z,5.95
2023-05-13T13:18:05.764Z,5.90
2023-05-13T13:21:12.515Z,1.70
2023-05-13T13:24:17.905Z,3.72
2023-05-13T13:27:25.519Z,2.98
2023-05-13T13:30:32.209Z,4.87
2023-05-13T13:33:37.551Z,4.50
2023-05-13T13:36:43.116Z,5.08
2023-05-13T13:39:48.048Z,3.45
2023-05-13T13:42:55.271Z,2.30
2023-05-13T13:46:01.783Z,3.72
2023-05-13T13:49:22.824Z,1.98
2023-05-13T13:52:17.547Z,2.45
2023-05-13T13:55:22.758Z,2.50
2023-05-13T13:58:27.736Z,4.25
2023-05-13T14:01:32.452Z,5.80
2023-05-13T14:04:39.790Z,2.00
2023-05-13T14:07:45.731Z,3.10
2023-05-13T14:10:50.640Z,2.42
2023-05-13T14:13:55.578Z,3.40
2023-05-13T14:17:00.569Z,3.77
2023-05-13T14:20:05.569Z,1.80
2023-05-13T14:23:10.914Z,2.25
2023-05-13T14:26:20.596Z,5.05
2023-05-13T14:29:27.327Z,2.80
2023-05-13T14:32:32.576Z,2.22
2023-05-13T14:35:40.154Z,4.78
2023-05-13T14:38:46.277Z,6.65
2023-05-13T14:41:52.842Z,13.35
2023-05-13T14:44:59.882Z,7.08
2023-05-13T14:48:06.472Z,5.67
2023-05-13T14:51:13.751Z,5.72
2023-05-13T14:54:20.989Z,3.65
2023-05-13T14:57:27.942Z,6.92
2023-05-13T15:00:34.801Z,3.00
2023-05-13T15:03:35.343Z,5.08
2023-05-13T15:06:42.554Z,4.25
2023-05-13T15:09:49.421Z,6.17
2023-05-13T15:12:57.232Z,4.47
2023-05-13T15:16:02.099Z,10.72
2023-05-13T15:19:08.031Z,4.15
2023-05-13T15:22:14.183Z,7.22
2023-05-13T15:25:20.997Z,4.17
2023-05-13T15:28:27.423Z,6.97
2023-05-13T15:31:34.014Z,10.18
2023-05-13T15:34:39.882Z,6.25
2023-05-13T15:37:45.781Z,4.05
2023-05-13T15:40:54.058Z,7.37
2023-05-13T15:44:01.231Z,4.22
2023-05-13T15:47:07.327Z,5.12
2023-05-13T15:50:14.564Z,13.58
2023-05-13T15:53:21.578Z,12.20
2023-05-13T15:56:28.122Z,9.28
2023-05-13T15:59:33.651Z,7.92
2023-05-13T16:02:45.837Z,5.17
2023-05-13T16:05:51.355Z,4.80
2023-05-13T16:08:58.209Z,6.70
2023-05-13T16:12:04.534Z,6.03
2023-05-13T16:15:09.748Z,3.75
2023-05-13T16:18:16.292Z,2.75
2023-05-13T16:21:22.267Z,4.08
2023-05-13T16:24:28.798Z,3.40
2023-05-13T16:27:37.029Z,6.42
2023-05-13T16:30:43.746Z,4.67
2023-05-13T16:33:50.864Z,3.40
2023-05-13T16:36:59.465Z,6.50
2023-05-13T16:40:07.887Z,3.72
2023-05-13T16:43:14.914Z,5.22
2023-05-13T16:46:20.973Z,5.83
2023-05-13T16:49:27.570Z,5.28
2023-05-13T16:52:34.180Z,7.25
2023-05-13T16:55:33.765Z,4.00
2023-05-13T16:58:40.949Z,9.30
2023-05-13T17:01:46.866Z,5.37
2023-05-13T17:04:53.352Z,5.85
2023-05-13T17:07:58.931Z,5.17
2023-05-13T17:11:05.016Z,11.45
2023-05-13T17:14:11.391Z,6.62
2023-05-13T17:17:17.409Z,4.97
2023-05-13T17:20:27.581Z,9.50
2023-05-13T17:23:32.843Z,5.50
2023-05-13T17:26:39.185Z,7.03
2023-05-13T17:29:45.417Z,11.97
2023-05-13T17:32:51.158Z,8.98
2023-05-13T17:35:57.482Z,5.12
2023-05-13T17:39:04.864Z,7.95
2023-05-13T17:42:10.967Z,12.47
2023-05-13T17:45:18.011Z,13.22
2023-05-13T17:48:23.903Z,13.22
2023-05-13T17:51:30.786Z,19.67
2023-05-13T17:54:36.406Z,20.20
2023-05-13T17:57:42.916Z,15.40
2023-05-13T18:00:49.097Z,16.67
2023-05-13T18:03:56.450Z,18.20
2023-05-13T18:07:03.281Z,104.35
2023-05-13T18:10:09.063Z,49.33
2023-05-13T18:13:14.625Z,34.00
2023-05-13T18:16:21.030Z,99.65
2023-05-13T18:19:27.591Z,64.50
2023-05-13T18:22:34.593Z,61.58
2023-05-13T18:25:52.377Z,84.05
2023-05-13T18:28:48.852Z,90.03
2023-05-13T18:31:54.610Z,80.83
2023-05-13T18:35:01.344Z,79.03
2023-05-13T18:38:07.600Z,56.42
2023-05-13T18:41:13.322Z,61.88
2023-05-13T18:44:19.514Z,59.35
2023-05-13T18:47:25.572Z,49.45
2023-05-13T18:50:26.261Z,39.50
2023-05-13T18:53:32.788Z,31.90
2023-05-13T18:56:39.166Z,25.00
2023-05-13T18:59:46.269Z,40.25
2023-05-13T19:02:52.981Z,35.40
2023-05-13T19:06:00.383Z,29.48
2023-05-13T19:09:08.075Z,27.70
2023-05-13T19:12:13.032Z,30.27
2023-05-13T19:15:20.345Z,30.65
2023-05-13T19:18:25.156Z,34.35
2023-05-13T19:21:30.790Z,27.87
2023-05-13T19:24:37.100Z,25.00
2023-05-13T19:27:43.013Z,35.60
2023-05-13T19:30:48.747Z,31.77
2023-05-13T19:33:56.386Z,39.27
2023-05-13T19:37:02.587Z,28.87
2023-05-13T19:40:10.706Z,30.00
2023-05-13T19:43:15.495Z,28.60
2023-05-13T19:46:20.871Z,29.42
2023-05-13T19:49:26.158Z,39.78
2023-05-13T19:52:32.533Z,39.15
2023-05-13T19:55:39.317Z,33.78
2023-05-13T19:58:46.232Z,34.03
2023-05-13T20:01:53.434Z,35.15
2023-05-13T20:05:00.352Z,27.22
2023-05-13T20:08:09.294Z,26.85
2023-05-13T20:11:14.716Z,22.75
2023-05-13T20:14:21.527Z,19.60
2023-05-13T20:17:31.591Z,18.67
2023-05-13T20:20:38.727Z,20.82
2023-05-13T20:23:46.236Z,18.35
2023-05-13T20:26:50.771Z,35.05
2023-05-13T20:30:00.969Z,16.27
2023-05-13T20:33:08.036Z,17.65
2023-05-13T20:36:15.464Z,20.15
2023-05-13T20:39:23.292Z,24.70
2023-05-13T20:42:31.098Z,22.85
2023-05-13T20:45:37.694Z,22.40
2023-05-13T20:48:42.536Z,22.77
2023-05-13T20:51:50.019Z,22.98
2023-05-13T20:54:56.105Z,16.60
2023-05-13T20:58:03.055Z,26.77
2023-05-13T21:01:08.519Z,16.65
2023-05-13T21:04:17.878Z,23.27
2023-05-13T21:07:24.131Z,22.37
2023-05-13T21:10:31.388Z,17.52
2023-05-13T21:13:37.739Z,25.77
2023-05-13T21:16:43.533Z,23.15
2023-05-13T21:19:49.660Z,20.35
2023-05-13T21:22:55.404Z,21.33
2023-05-13T21:26:01.418Z,19.27
2023-05-13T21:29:07.458Z,19.17
2023-05-13T21:32:12.878Z,24.85
2023-05-13T21:35:21.269Z,27.87
2023-05-13T21:38:27.226Z,23.47
2023-05-13T21:41:34.282Z,23.60
2023-05-13T21:44:39.115Z,19.55
2023-05-13T21:47:44.132Z,17.75
2023-05-13T21:50:49.929Z,19.15
2023-05-13T21:53:56.479Z,20.90
2023-05-13T21:57:03.026Z,16.42
2023-05-13T22:00:11.679Z,23.38
2023-05-13T22:03:18.226Z,20.20
2023-05-13T22:06:18.888Z,20.52
2023-05-13T22:09:23.686Z,19.90
2023-05-13T22:12:30.634Z,20.80
2023-05-13T22:15:36.280Z,15.75
2023-05-13T22:18:42.877Z,16.95
2023-05-13T22:21:48.480Z,19.90
2023-05-13T22:24:54.310Z,16.75
2023-05-13T22:28:00.794Z,14.58
2023-05-13T22:31:08.019Z,13.18
2023-05-13T22:34:13.611Z,13.72
2023-05-13T22:37:19.691Z,15.70
2023-05-13T22:40:25.849Z,12.00
2023-05-13T22:43:31.212Z,12.60
2023-05-13T22:46:37.676Z,16.40
2023-05-13T22:49:43.668Z,12.20
2023-05-13T22:52:49.701Z,13.30
2023-05-13T22:55:55.669Z,9.45
2023-05-13T22:59:02.252Z,13.60
2023-05-13T23:02:07.897Z,13.85
2023-05-13T23:05:14.205Z,7.72
2023-05-13T23:08:20.188Z,11.95
2023-05-13T23:11:26.940Z,9.75
2023-05-13T23:14:35.978Z,14.20
2023-05-13T23:17:40.862Z,12.13
2023-05-13T23:20:46.044Z,13.40
2023-05-13T23:23:51.316Z,14.60
2023-05-13T23:26:57.774Z,12.25
2023-05-13T23:30:03.213Z,12.30
2023-05-13T23:33:09.354Z,11.90
2023-05-13T23:36:15.640Z,21.87
2023-05-13T23:39:21.584Z,18.90
2023-05-13T23:42:29.000Z,18.05
2023-05-13T23:45:34.886Z,12.82
2023-05-13T23:48:42.236Z,16.70
2023-05-13T23:51:47.892Z,12.80
2023-05-13T23:54:54.056Z,11.53
2023-05-13T23:58:01.523Z,12.58
